Terminal Aerodrome Forecast
Issued by NWS

Home | Current Version | Previous Version | Text Only | Print | Product List | Glossary On
Versions: 1 2 3 4 5 6 7 8 9 10 11 12 13 14 15
609
FTUS45 KTFX 051127
TAFCTB
TAF
KCTB 051127Z 0512/0612 30006KT P6SM SCT090 BKN120
     FM052100 35014KT P6SM SCT050 OVC090 PROB30 0521/0601 VRB20G40KT
      -TSRA BKN050CB
     FM060100 02015G30KT P6SM -SHRA SCT030 OVC045
     FM060600 34015KT P6SM OVC035
      TEMPO 0609/0612 6SM -RA BR OVC010=

USA.gov is the U.S. government's official web portal to all federal, state and local government web resources and services.